首页
METAR-TAF:

METAR-TAF

机场 :

Algona, 艾奥瓦州, 美国

纬度: 43-05N, 经度: 094-16W, 海拔: 372米

当前天气观测

该预报发布于7分钟前的18:35 UTC
风速9节,风向西转西南
温度 -2°C
湿度 69%
气压 1025 hPa
能見度: 16.1公里
天空无云

METAR: KAXA 141835Z AUTO 25009KT 10SM CLR M02/M07 A3026 RMK A01

时间: 12:42 (18:42 UTC)


TAF: 丢失

超过4000个机场的气象观测和天气预报(METAR&TAF报告)。

可查询的气象台以黄色和红色小点在地图上表示。

将鼠标移到小点上方,可查看气象台名称。

然后点击查看天气观测和预报。

如需切换地图:点击带黑十字的绿色按钮放大地图;点击带横线的绿色按钮缩小地图;或者点击绿色箭头查看邻近地区的地图。


METAR-TAF: